Time;durP1;ratioP1;P1;durP2;ratioP2;P2;SDS_P1;SDS_P2;PMS_P1;PMS_P2;Temp;Humidity;BMP_temperature;BMP_pressure;BME280_temperature;BME280_humidity;BME280_pressure;Samples;Min_cycle;Max_cycle;Signal;HPM_P1;HPM_P2
2023/02/10 00:00:55;;;;;;;98.65;55.30;;;0.60;99.90;;;;;;5041421;28;20145;-49
2023/02/10 00:03:21;;;;;;;220.77;101.55;;;0.60;99.90;;;;;;5072714;28;20036;-50
2023/02/10 00:05:47;;;;;;;144.40;70.50;;;0.60;99.90;;;;;;5057328;28;20033;-51
2023/02/10 00:08:12;;;;;;;125.20;65.30;;;0.60;99.90;;;;;;5072474;28;20047;-51
2023/02/10 00:10:38;;;;;;;112.22;58.53;;;0.80;99.90;;;;;;5072366;28;20128;-51
2023/02/10 00:13:04;;;;;;;114.85;59.80;;;0.90;99.90;;;;;;5072213;28;20392;-51
2023/02/10 00:15:29;;;;;;;206.98;97.15;;;1.00;99.90;;;;;;5072142;28;20142;-50
2023/02/10 00:17:55;;;;;;;186.27;89.85;;;0.70;99.90;;;;;;5072040;28;20025;-51
2023/02/10 00:20:21;;;;;;;99.22;54.72;;;0.80;99.90;;;;;;5071949;28;20392;-50
2023/02/10 00:22:46;;;;;;;98.50;54.00;;;0.90;99.90;;;;;;5072243;28;20055;-50
2023/02/10 00:25:12;;;;;;;92.10;55.85;;;1.00;99.90;;;;;;5057461;28;20120;-51
2023/02/10 00:27:38;;;;;;;92.60;55.40;;;1.00;99.90;;;;;;5054164;28;20477;-50
2023/02/10 00:30:03;;;;;;;96.10;56.92;;;0.90;99.90;;;;;;5053902;28;20025;-51
2023/02/10 00:32:29;;;;;;;81.15;49.65;;;0.90;99.90;;;;;;5054003;28;20029;-50
2023/02/10 00:34:55;;;;;;;77.13;48.08;;;1.00;99.90;;;;;;5053963;28;20029;-50
2023/02/10 00:37:20;;;;;;;65.97;41.85;;;1.00;99.90;;;;;;5054073;28;20063;-50
2023/02/10 00:39:46;;;;;;;68.47;42.65;;;0.90;99.90;;;;;;5053669;28;20033;-51
2023/02/10 00:42:12;;;;;;;77.65;50.30;;;0.90;99.90;;;;;;5053829;28;20037;-50
2023/02/10 00:44:37;;;;;;;94.38;57.42;;;0.70;99.90;;;;;;5053890;28;20408;-51
2023/02/10 00:47:03;;;;;;;88.70;56.88;;;0.70;99.90;;;;;;5053626;28;20037;-50
2023/02/10 00:49:29;;;;;;;88.32;54.53;;;0.80;99.90;;;;;;5054122;28;20055;-50
2023/02/10 00:51:55;;;;;;;96.05;58.67;;;0.80;99.90;;;;;;5053969;28;20143;-50
2023/02/10 00:54:20;;;;;;;82.82;51.97;;;0.80;99.90;;;;;;5053644;28;20483;-50
2023/02/10 00:56:46;;;;;;;98.70;58.58;;;0.90;99.90;;;;;;5018347;28;20140;-51
2023/02/10 00:59:13;;;;;;;101.78;60.00;;;0.80;99.90;;;;;;5053893;28;20086;-49
2023/02/10 01:01:38;;;;;;;94.63;53.85;;;0.90;99.90;;;;;;5053565;28;20485;-50
2023/02/10 01:04:04;;;;;;;86.35;50.55;;;1.10;99.90;;;;;;5053613;28;20039;-51
2023/02/10 01:06:30;;;;;;;116.82;67.30;;;0.80;99.90;;;;;;5053452;28;20570;-50
2023/02/10 01:08:55;;;;;;;119.32;66.93;;;0.80;99.90;;;;;;5053419;28;20473;-50
2023/02/10 01:11:21;;;;;;;177.60;98.13;;;0.80;99.90;;;;;;5053478;28;20025;-51
2023/02/10 01:13:47;;;;;;;216.00;124.32;;;0.80;99.90;;;;;;5053176;28;20024;-51
2023/02/10 01:16:16;;;;;;;184.15;113.70;;;0.80;99.90;;;;;;5034717;28;20044;-50
2023/02/10 01:18:42;;;;;;;143.10;93.68;;;0.30;99.90;;;;;;5053368;28;20094;-51
2023/02/10 01:21:09;;;;;;;111.45;69.75;;;0.50;99.90;;;;;;5053114;28;20069;-50
2023/02/10 01:23:35;;;;;;;75.82;45.75;;;0.60;99.90;;;;;;5051425;28;20087;-50
2023/02/10 01:26:01;;;;;;;53.40;33.30;;;0.60;99.90;;;;;;5052717;28;20031;-50
2023/02/10 01:28:27;;;;;;;58.50;34.83;;;0.60;99.90;;;;;;5053054;28;20029;-51
2023/02/10 01:30:53;;;;;;;54.78;33.70;;;0.80;99.90;;;;;;5053288;28;20554;-51
2023/02/10 01:33:18;;;;;;;52.70;33.53;;;0.50;99.90;;;;;;5053018;28;20142;-50
2023/02/10 01:35:44;;;;;;;53.42;33.47;;;;;;;;;;5017981;28;20060;-50
2023/02/10 01:38:10;;;;;;;78.95;45.70;;;;;;;;;;5053162;28;20420;-51
2023/02/10 01:40:36;;;;;;;73.10;43.40;;;0.10;99.90;;;;;;5053171;28;20106;-51
2023/02/10 01:43:02;;;;;;;82.30;48.40;;;0.00;97.90;;;;;;5051058;28;20631;-50
2023/02/10 01:45:33;;;;;;;73.68;43.83;;;;;;;;;;5055492;28;20427;-50
2023/02/10 01:48:00;;;;;;;65.65;40.88;;;;;;;;;;5059704;28;20380;-50
2023/02/10 01:50:30;;;;;;;66.00;40.08;;;;;;;;;;5059760;28;20032;-50
2023/02/10 01:52:58;;;;;;;67.55;41.22;;;;;;;;;;5074448;28;20043;-51
2023/02/10 01:55:26;;;;;;;57.40;38.08;;;;;;;;;;5074426;28;20043;-50
2023/02/10 01:57:56;;;;;;;62.53;37.47;;;;;;;;;;5074278;28;20044;-49
2023/02/10 02:00:22;;;;;;;55.47;36.22;;;;;;;;;;5059192;28;20040;-50
2023/02/10 02:02:49;;;;;;;58.53;36.67;;;;;;;;;;5091281;28;20032;-50
2023/02/10 02:05:19;;;;;;;57.90;35.28;;;;;;;;;;5059301;28;20469;-50
2023/02/10 02:07:47;;;;;;;56.40;36.55;;;;;;;;;;5059166;28;20384;-50
2023/02/10 02:10:14;;;;;;;55.33;34.92;;;;;;;;;;5059330;28;20469;-50
2023/02/10 02:12:47;;;;;;;75.72;44.45;;;;;;;;;;5059228;28;20111;-50
2023/02/10 02:15:32;;;;;;;85.68;49.45;;;;;;;;;;5059516;28;20112;-51
2023/02/10 02:18:14;;;;;;;71.70;42.95;;;;;;;;;;5059519;28;20093;-50
2023/02/10 02:20:59;;;;;;;57.80;35.72;;;;;;;;;;5059420;28;20040;-50
2023/02/10 02:23:43;;;;;;;62.20;37.13;;;0.00;96.70;;;;;;5059353;28;20037;-50
2023/02/10 02:26:39;;;;;;;62.03;37.13;;;0.10;99.90;;;;;;5059121;28;20025;-50
2023/02/10 02:29:31;;;;;;;61.50;36.08;;;0.10;99.90;;;;;;5074477;28;20039;-50
2023/02/10 02:32:14;;;;;;;59.72;35.28;;;0.10;99.90;;;;;;5059376;28;20415;-50
2023/02/10 02:34:50;;;;;;;54.35;34.08;;;0.30;99.90;;;;;;5040696;28;20086;-50
2023/02/10 02:37:29;;;;;;;51.72;32.63;;;-0.20;99.90;;;;;;5059408;28;20108;-50
2023/02/10 02:39:55;;;;;;;54.03;35.20;;;-0.70;97.90;;;;;;5040364;28;20056;-50
2023/02/10 02:42:24;;;;;;;54.05;33.97;;;-0.80;98.40;;;;;;5059096;28;20033;-50
2023/02/10 02:45:45;;;;;;;59.33;36.42;;;-0.90;98.60;;;;;;5059615;28;20083;-51
2023/02/10 02:48:44;;;;;;;65.53;40.53;;;-1.10;99.10;;;;;;4997306;28;20486;-50
2023/02/10 02:51:14;;;;;;;66.15;41.42;;;-1.00;99.10;;;;;;4955227;29;20485;-50
2023/02/10 02:54:03;;;;;;;84.50;47.17;;;-1.10;99.40;;;;;;4939424;29;20091;-50
2023/02/10 02:56:39;;;;;;;90.05;49.60;;;-0.90;99.30;;;;;;4937847;29;20051;-50
2023/02/10 02:59:17;;;;;;;85.68;45.65;;;-0.70;98.90;;;;;;4936111;29;20043;-51
2023/02/10 03:02:04;;;;;;;86.47;46.25;;;-0.60;98.60;;;;;;4936370;29;20039;-51
2023/02/10 03:04:33;;;;;;;81.13;44.45;;;-0.50;98.50;;;;;;4936338;29;20097;-50
2023/02/10 03:06:59;;;;;;;79.30;44.00;;;-0.40;98.40;;;;;;4935890;29;20551;-51
2023/02/10 03:09:26;;;;;;;90.45;44.22;;;-0.30;98.20;;;;;;4920137;29;20032;-50
2023/02/10 03:11:51;;;;;;;70.20;44.17;;;-0.30;98.10;;;;;;4936045;29;20432;-50
2023/02/10 03:14:17;;;;;;;148.93;81.15;;;-0.30;98.00;;;;;;4935998;29;20042;-50
2023/02/10 03:16:43;;;;;;;120.03;66.00;;;-0.80;98.30;;;;;;4936003;29;20091;-51
2023/02/10 03:19:09;;;;;;;115.72;61.25;;;-1.60;99.60;;;;;;4936083;29;20556;-51
2023/02/10 03:21:34;;;;;;;111.00;63.28;;;-1.80;99.90;;;;;;4920158;29;20141;-50
2023/02/10 03:24:00;;;;;;;235.02;95.85;;;-1.50;99.90;;;;;;4908049;28;20036;-50
2023/02/10 03:26:30;;;;;;;131.50;64.63;;;-1.10;99.90;;;;;;4974500;28;20113;-50
2023/02/10 03:28:56;;;;;;;64.70;38.53;;;-0.80;99.50;;;;;;5040557;28;20029;-50
2023/02/10 03:31:22;;;;;;;59.85;34.58;;;-0.60;99.50;;;;;;5055119;28;20033;-50
2023/02/10 03:33:48;;;;;;;47.92;29.67;;;-0.40;99.20;;;;;;5055249;28;20079;-50
2023/02/10 03:36:14;;;;;;;42.85;27.52;;;0.60;99.20;;;;;;5055247;28;20473;-50
2023/02/10 03:38:40;;;;;;;43.00;28.48;;;-0.40;98.70;;;;;;5020517;28;20037;-50
2023/02/10 03:41:06;;;;;;;42.95;26.98;;;0.30;98.90;;;;;;5056182;28;20035;-50
2023/02/10 03:43:31;;;;;;;42.50;27.65;;;-0.30;98.50;;;;;;5055682;28;20112;-50
2023/02/10 03:46:01;;;;;;;37.60;24.55;;;-0.30;98.50;;;;;;5054783;28;20074;-51
2023/02/10 03:48:31;;;;;;;42.25;26.98;;;-0.20;98.30;;;;;;5036789;28;20048;-50
2023/02/10 03:50:58;;;;;;;41.85;25.73;;;-0.20;98.20;;;;;;5055145;28;20166;-51
2023/02/10 03:53:24;;;;;;;45.85;25.05;;;-0.20;98.10;;;;;;5059148;28;20029;-55
2023/02/10 03:55:49;;;;;;;38.83;24.23;;;-0.20;98.00;;;;;;5058533;28;20063;-55
2023/02/10 03:58:15;;;;;;;41.60;25.67;;;-0.20;97.90;;;;;;5058760;28;20107;-50
2023/02/10 04:00:41;;;;;;;44.35;28.02;;;-0.20;97.90;;;;;;5057527;28;20446;-50
2023/02/10 04:03:06;;;;;;;35.45;22.63;;;-0.20;97.90;;;;;;5035949;28;20049;-50
2023/02/10 04:05:32;;;;;;;36.33;24.38;;;0.60;97.90;;;;;;5054365;28;20032;-51
2023/02/10 04:07:59;;;;;;;50.33;27.67;;;-0.30;97.70;;;;;;5035480;28;20052;-50
2023/02/10 04:10:26;;;;;;;42.65;26.35;;;-0.30;97.80;;;;;;5054396;28;20033;-50
2023/02/10 04:12:52;;;;;;;47.00;27.30;;;-0.20;97.60;;;;;;5054137;28;20536;-50
2023/02/10 04:15:18;;;;;;;47.33;29.30;;;-0.10;97.80;;;;;;5054059;28;20100;-50
2023/02/10 04:17:44;;;;;;;39.33;25.48;;;-0.40;97.70;;;;;;5053869;28;20028;-50
2023/02/10 04:20:11;;;;;;;38.10;25.25;;;-0.30;97.60;;;;;;5015656;28;20037;-50
2023/02/10 04:22:36;;;;;;;44.33;26.40;;;-0.30;97.50;;;;;;5034594;28;20367;-50
2023/02/10 04:25:02;;;;;;;42.97;25.25;;;-0.20;97.80;;;;;;5048894;28;20060;-50
2023/02/10 04:27:28;;;;;;;40.15;25.27;;;-0.30;97.40;;;;;;5034530;28;20025;-51
2023/02/10 04:29:53;;;;;;;41.80;26.30;;;-0.40;97.40;;;;;;5033894;28;20486;-50
2023/02/10 04:32:19;;;;;;;43.45;27.50;;;-0.30;97.60;;;;;;5034001;28;20037;-50
2023/02/10 04:34:45;;;;;;;40.67;25.52;;;-0.30;97.60;;;;;;5033996;28;20049;-50
2023/02/10 04:37:10;;;;;;;45.08;26.70;;;-0.30;97.60;;;;;;5033911;28;20466;-51
2023/02/10 04:39:36;;;;;;;39.85;26.30;;;-0.30;97.50;;;;;;5033928;28;20037;-51
2023/02/10 04:42:02;;;;;;;42.53;26.00;;;-0.30;97.50;;;;;;5033748;28;20029;-51
2023/02/10 04:44:28;;;;;;;44.15;28.05;;;-0.30;97.60;;;;;;5032065;28;20034;-50
2023/02/10 04:46:53;;;;;;;40.70;26.35;;;-0.30;97.70;;;;;;5034485;28;20037;-51
2023/02/10 04:49:19;;;;;;;98.82;47.97;;;-0.30;97.70;;;;;;5048488;28;20033;-51
2023/02/10 04:51:45;;;;;;;106.20;52.90;;;-0.20;97.70;;;;;;5033711;28;20028;-51
2023/02/10 04:54:11;;;;;;;123.65;70.88;;;-0.20;97.80;;;;;;5048478;28;20131;-51
2023/02/10 04:56:36;;;;;;;83.65;48.13;;;-0.10;97.60;;;;;;5048349;28;20418;-50
2023/02/10 04:59:02;;;;;;;67.82;33.92;;;-0.20;97.50;;;;;;5033454;28;20099;-50
2023/02/10 05:01:28;;;;;;;44.20;26.75;;;-0.20;97.60;;;;;;5033450;28;20037;-51
2023/02/10 05:03:53;;;;;;;42.72;27.17;;;-0.20;97.50;;;;;;5032453;28;20128;-51
2023/02/10 05:06:19;;;;;;;44.92;26.55;;;-0.20;97.20;;;;;;5033274;28;20061;-50
2023/02/10 05:08:45;;;;;;;57.67;33.97;;;-0.30;97.30;;;;;;5041728;28;20095;-50
2023/02/10 05:11:12;;;;;;;65.18;39.13;;;-0.30;97.40;;;;;;5022805;28;20044;-50
2023/02/10 05:13:39;;;;;;;69.20;33.83;;;-0.30;97.50;;;;;;5016223;28;20094;-50
2023/02/10 05:16:06;;;;;;;51.55;29.60;;;-0.30;97.40;;;;;;5053078;28;20033;-51
2023/02/10 05:18:33;;;;;;;45.20;29.10;;;-0.40;97.50;;;;;;5053184;28;20496;-50
2023/02/10 05:21:01;;;;;;;45.55;28.75;;;-0.30;97.50;;;;;;5047098;28;20421;-50
2023/02/10 05:23:27;;;;;;;46.25;30.15;;;-0.30;97.30;;;;;;5045408;28;20041;-50
2023/02/10 05:25:53;;;;;;;41.72;27.00;;;-0.40;97.30;;;;;;5044524;28;20033;-50
2023/02/10 05:28:19;;;;;;;51.10;30.42;;;-0.40;97.30;;;;;;5052927;28;20043;-50
2023/02/10 05:30:46;;;;;;;51.20;29.13;;;-0.40;97.50;;;;;;5053007;28;20025;-50
2023/02/10 05:33:11;;;;;;;47.45;29.75;;;-0.50;97.50;;;;;;5053438;28;20475;-50
2023/02/10 05:35:37;;;;;;;46.17;28.63;;;-0.60;97.60;;;;;;5052986;28;20037;-50
2023/02/10 05:38:03;;;;;;;47.72;29.27;;;-0.60;97.60;;;;;;5034488;28;20048;-51
2023/02/10 05:40:30;;;;;;;44.33;28.15;;;-0.60;97.60;;;;;;5033148;28;20059;-51
2023/02/10 05:42:56;;;;;;;46.83;28.27;;;-0.60;97.80;;;;;;5051994;28;20400;-50
2023/02/10 05:45:22;;;;;;;41.05;27.40;;;-0.70;97.80;;;;;;5052852;28;20036;-50
2023/02/10 05:47:47;;;;;;;50.65;29.38;;;-1.00;98.40;;;;;;5052845;28;20084;-48
2023/02/10 05:50:13;;;;;;;58.03;34.20;;;-1.10;98.30;;;;;;5049850;28;20480;-49
2023/02/10 05:52:39;;;;;;;114.45;59.15;;;-1.10;98.50;;;;;;5053097;28;20120;-49
2023/02/10 05:55:05;;;;;;;117.55;62.92;;;-1.10;98.80;;;;;;5052971;28;20036;-50
2023/02/10 05:57:31;;;;;;;125.25;67.55;;;-0.90;98.60;;;;;;5052805;28;20424;-50
2023/02/10 05:59:57;;;;;;;64.32;39.20;;;-0.80;98.40;;;;;;5052532;28;20099;-48
2023/02/10 06:02:22;;;;;;;53.90;33.55;;;-0.70;98.20;;;;;;5052861;28;20044;-48
2023/02/10 06:04:49;;;;;;;55.03;32.85;;;-0.60;98.00;;;;;;5052490;28;20039;-50
2023/02/10 06:07:16;;;;;;;52.55;31.83;;;-0.60;98.00;;;;;;5052619;28;20079;-49
2023/02/10 06:09:42;;;;;;;69.28;43.22;;;-0.50;98.00;;;;;;5052006;28;20033;-48
2023/02/10 06:12:08;;;;;;;72.90;40.45;;;-0.40;98.00;;;;;;5052811;28;20033;-50
2023/02/10 06:14:36;;;;;;;78.80;49.28;;;-0.30;98.00;;;;;;5034260;28;20033;-50
2023/02/10 06:17:03;;;;;;;64.45;37.22;;;-0.30;97.80;;;;;;5051657;28;20037;-48
2023/02/10 06:19:28;;;;;;;53.60;30.38;;;-0.30;97.90;;;;;;5052135;28;20033;-48
2023/02/10 06:21:54;;;;;;;74.15;39.58;;;-0.40;98.00;;;;;;5052764;28;20086;-49
2023/02/10 06:24:20;;;;;;;92.60;50.17;;;0.30;98.00;;;;;;5052849;28;20033;-48
2023/02/10 06:26:45;;;;;;;51.85;31.48;;;1.60;97.70;;;;;;5051987;28;20469;-49
2023/02/10 06:29:11;;;;;;;46.38;30.52;;;;;;;;;;5052496;28;20431;-50
2023/02/10 06:31:37;;;;;;;50.65;33.30;;;;;;;;;;5053186;28;20518;-49
2023/02/10 06:34:05;;;;;;;62.75;37.22;;;5.60;96.40;;;;;;5056768;28;20370;-50
2023/02/10 06:36:30;;;;;;;55.03;38.25;;;6.20;93.60;;;;;;5057521;28;20068;-51
2023/02/10 06:38:56;;;;;;;47.38;30.17;;;;;;;;;;5055726;28;20036;-50
2023/02/10 06:41:22;;;;;;;56.25;36.40;;;8.30;91.70;;;;;;5056191;28;20052;-49
2023/02/10 06:43:48;;;;;;;88.35;51.15;;;8.50;90.90;;;;;;5057276;28;20033;-51
2023/02/10 06:46:15;;;;;;;57.55;38.17;;;8.80;90.40;;;;;;5057673;28;20028;-50
2023/02/10 06:48:41;;;;;;;72.60;53.08;;;8.80;88.90;;;;;;5057401;28;20056;-50
2023/02/10 06:51:06;;;;;;;84.25;58.67;;;9.30;88.90;;;;;;5057689;28;20501;-49
2023/02/10 06:53:32;;;;;;;81.40;59.20;;;;;;;;;;5057616;28;20041;-49
2023/02/10 06:55:58;;;;;;;52.65;37.67;;;10.90;88.20;;;;;;5056222;28;20029;-51
2023/02/10 06:58:24;;;;;;;62.15;41.78;;;;;;;;;;5055809;28;20060;-51
2023/02/10 07:00:50;;;;;;;52.03;36.22;;;12.30;85.10;;;;;;5055385;28;20033;-47
2023/02/10 07:03:16;;;;;;;46.90;32.05;;;;;;;;;;5055820;28;20354;-47
2023/02/10 07:05:42;;;;;;;71.72;46.25;;;;;;;;;;5070270;28;20076;-47
2023/02/10 07:08:08;;;;;;;74.78;62.80;;;;;;;;;;5056337;28;20071;-50
2023/02/10 07:10:34;;;;;;;53.30;40.05;;;13.90;80.30;;;;;;5057899;28;20033;-49
2023/02/10 07:13:00;;;;;;;54.67;38.65;;;14.00;79.30;;;;;;5057133;28;20028;-56
2023/02/10 07:15:26;;;;;;;63.05;45.08;;;13.80;79.50;;;;;;5057212;28;20392;-50
2023/02/10 07:17:52;;;;;;;56.95;39.50;;;14.00;78.50;;;;;;5055731;28;20029;-49
2023/02/10 07:20:21;;;;;;;57.30;38.47;;;14.10;77.80;;;;;;5044836;28;20049;-50
2023/02/10 07:22:47;;;;;;;49.53;35.25;;;;;;;;;;5054930;28;20503;-49
2023/02/10 07:25:13;;;;;;;50.95;33.67;;;14.10;77.10;;;;;;5054769;28;20032;-49
2023/02/10 07:27:39;;;;;;;50.58;34.75;;;14.00;78.90;;;;;;5054943;28;20029;-49
2023/02/10 07:30:06;;;;;;;51.50;35.08;;;14.20;77.30;;;;;;5054727;28;20079;-48
2023/02/10 07:32:32;;;;;;;53.47;37.55;;;;;;;;;;5061198;28;20040;-51
2023/02/10 07:34:57;;;;;;;60.97;44.47;;;14.40;77.20;;;;;;5054704;28;20032;-49
2023/02/10 07:37:23;;;;;;;73.53;52.67;;;;;;;;;;5054395;28;20024;-49
2023/02/10 07:39:49;;;;;;;82.60;52.97;;;14.70;76.30;;;;;;5054399;28;20040;-50
2023/02/10 07:42:15;;;;;;;106.38;69.45;;;15.10;77.50;;;;;;5054312;28;20029;-49
2023/02/10 07:44:41;;;;;;;61.70;44.58;;;;;;;;;;5053902;28;20040;-49
2023/02/10 07:47:09;;;;;;;66.78;45.17;;;15.90;76.30;;;;;;5069727;28;20049;-50
2023/02/10 07:49:35;;;;;;;49.58;36.08;;;15.80;74.50;;;;;;5054930;28;20028;-49
2023/02/10 07:52:01;;;;;;;57.10;40.05;;;;;;;;;;5086160;28;20041;-48
2023/02/10 07:54:27;;;;;;;57.65;39.17;;;15.40;73.00;;;;;;5054688;28;20020;-50
2023/02/10 07:56:55;;;;;;;53.17;39.03;;;14.50;85.90;;;;;;5053388;28;20102;-49
2023/02/10 07:59:21;;;;;;;52.70;38.65;;;;;;;;;;5054422;28;20033;-50
2023/02/10 08:01:47;;;;;;;64.45;47.85;;;15.00;83.70;;;;;;5054776;28;20075;-50
2023/02/10 08:04:13;;;;;;;44.78;34.50;;;16.00;74.90;;;;;;5053482;28;20056;-49
2023/02/10 08:06:39;;;;;;;49.17;37.83;;;15.40;73.30;;;;;;5053986;28;20025;-51
2023/02/10 08:09:06;;;;;;;52.22;38.45;;;15.00;81.40;;;;;;5071435;28;20038;-49
2023/02/10 08:11:33;;;;;;;45.50;34.00;;;14.50;78.60;;;;;;5071677;28;20041;-49
2023/02/10 08:13:59;;;;;;;48.70;35.25;;;;;;;;;;5071575;28;20504;-49
2023/02/10 08:16:24;;;;;;;109.28;87.95;;;14.20;99.90;;;;;;5072112;28;20466;-51
2023/02/10 08:18:50;;;;;;;52.97;38.47;;;13.60;74.80;;;;;;5071947;28;20071;-49
2023/02/10 08:21:15;;;;;;;98.68;71.40;;;13.90;74.80;;;;;;5071844;28;20555;-49
2023/02/10 08:23:41;;;;;;;84.20;62.83;;;14.30;91.70;;;;;;5072293;28;20527;-49
2023/02/10 08:26:10;;;;;;;54.33;41.80;;;15.30;77.40;;;;;;5038320;28;20503;-51
2023/02/10 08:28:37;;;;;;;48.83;38.47;;;;;;;;;;5072016;28;20036;-49
2023/02/10 08:31:04;;;;;;;92.07;61.05;;;14.80;72.10;;;;;;5071735;28;20431;-51
2023/02/10 08:33:33;;;;;;;48.92;37.97;;;14.50;74.40;;;;;;5071840;28;20078;-49
2023/02/10 08:36:05;;;;;;;57.45;38.97;;;15.50;73.50;;;;;;5071357;28;20570;-49
2023/02/10 08:38:31;;;;;;;87.38;40.35;;;16.50;72.80;;;;;;5034721;28;20440;-49
2023/02/10 08:40:57;;;;;;;48.15;37.05;;;17.10;72.10;;;;;;5055022;28;20131;-50
2023/02/10 08:43:23;;;;;;;51.28;40.08;;;16.30;71.30;;;;;;5052004;28;20086;-49
2023/02/10 08:45:49;;;;;;;47.70;36.17;;;16.50;72.00;;;;;;5034634;28;20036;-51
2023/02/10 08:48:15;;;;;;;48.47;37.80;;;17.00;71.50;;;;;;5053122;28;20433;-51
2023/02/10 08:50:40;;;;;;;47.88;37.25;;;17.20;71.40;;;;;;5052945;28;20033;-49
2023/02/10 08:53:06;;;;;;;54.47;39.78;;;17.90;70.60;;;;;;5050198;28;20029;-49
2023/02/10 08:55:32;;;;;;;50.83;40.20;;;17.90;71.10;;;;;;5051819;28;20025;-50
2023/02/10 08:57:57;;;;;;;52.88;38.88;;;18.20;70.00;;;;;;5053144;28;20049;-50
2023/02/10 09:00:24;;;;;;;58.45;40.97;;;18.00;69.60;;;;;;5053195;28;20481;-50
2023/02/10 09:02:50;;;;;;;54.88;39.42;;;18.30;69.50;;;;;;5053300;28;20031;-51
2023/02/10 09:05:18;;;;;;;71.13;46.38;;;17.80;69.00;;;;;;5053326;28;20060;-50
2023/02/10 09:07:44;;;;;;;51.65;40.15;;;17.80;70.30;;;;;;5035111;28;20075;-50
2023/02/10 09:10:11;;;;;;;55.78;41.33;;;18.20;70.00;;;;;;5053338;28;20116;-51
2023/02/10 09:12:38;;;;;;;51.15;39.47;;;17.20;69.90;;;;;;5053257;28;20074;-50
2023/02/10 09:15:04;;;;;;;58.20;41.45;;;17.50;69.90;;;;;;5052651;28;20107;-49
2023/02/10 09:17:30;;;;;;;133.63;86.88;;;17.90;78.80;;;;;;5084911;28;20508;-50
2023/02/10 09:19:56;;;;;;;62.70;45.55;;;16.50;69.30;;;;;;5034673;28;20151;-49
2023/02/10 09:22:22;;;;;;;69.63;42.72;;;;;;;;;;5053272;28;20475;-50
2023/02/10 09:24:50;;;;;;;63.10;45.10;;;16.40;91.10;;;;;;5067898;28;20037;-50
2023/02/10 09:27:16;;;;;;;51.20;41.28;;;16.00;71.30;;;;;;5053465;28;20051;-50
2023/02/10 09:29:42;;;;;;;51.42;39.38;;;16.50;71.20;;;;;;5052930;28;20465;-50
2023/02/10 09:32:07;;;;;;;46.75;38.20;;;17.00;70.70;;;;;;5053213;28;20056;-50
2023/02/10 09:34:33;;;;;;;51.63;38.00;;;18.00;69.30;;;;;;5034601;28;20041;-50
2023/02/10 09:37:01;;;;;;;50.75;40.00;;;15.90;69.40;;;;;;5053363;28;20025;-50
2023/02/10 09:39:28;;;;;;;57.88;39.67;;;16.60;70.40;;;;;;5053161;28;20163;-50
2023/02/10 09:42:26;;;;;;;53.38;39.58;;;16.10;69.90;;;;;;5053168;28;20033;-50
2023/02/10 09:45:12;;;;;;;54.75;39.50;;;;;;;;;;5050551;28;20041;-50
2023/02/10 09:47:48;;;;;;;52.17;39.53;;;17.00;69.20;;;;;;5033939;28;20090;-49
2023/02/10 09:50:39;;;;;;;54.15;39.85;;;16.20;70.50;;;;;;5041728;28;20049;-51
2023/02/10 09:53:23;;;;;;;59.72;39.40;;;16.60;70.00;;;;;;5045750;28;20025;-50
2023/02/10 09:55:55;;;;;;;48.40;39.30;;;15.60;70.40;;;;;;4981603;28;20441;-51
2023/02/10 09:58:42;;;;;;;50.85;40.22;;;15.70;71.60;;;;;;5030635;28;20057;-48
2023/02/10 10:01:29;;;;;;;50.90;38.80;;;16.90;70.70;;;;;;5030625;28;20042;-51
2023/02/10 10:04:01;;;;;;;50.08;39.78;;;17.30;70.40;;;;;;5030238;28;20021;-50
2023/02/10 10:06:38;;;;;;;49.65;40.10;;;15.90;71.60;;;;;;5031551;28;20029;-50
2023/02/10 10:09:09;;;;;;;56.97;40.40;;;15.90;72.00;;;;;;5031900;28;20045;-49
2023/02/10 10:11:42;;;;;;;53.55;39.10;;;15.40;72.20;;;;;;5034263;28;20029;-50
2023/02/10 10:14:25;;;;;;;49.40;37.65;;;16.50;70.80;;;;;;5053342;28;20119;-54
2023/02/10 10:17:27;;;;;;;50.90;37.90;;;14.50;71.60;;;;;;5050091;28;20040;-52
2023/02/10 10:20:12;;;;;;;50.33;36.03;;;15.10;92.00;;;;;;5018906;28;20080;-51
2023/02/10 10:23:16;;;;;;;52.13;37.38;;;13.80;91.10;;;;;;5054056;28;20036;-52
2023/02/10 10:26:14;;;;;;;48.25;37.13;;;13.70;72.60;;;;;;5022287;28;20127;-53
2023/02/10 10:28:55;;;;;;;57.38;39.03;;;13.90;93.90;;;;;;4965652;28;20055;-52
2023/02/10 10:31:29;;;;;;;54.75;38.03;;;14.50;73.10;;;;;;4940119;28;20038;-53
2023/02/10 10:34:07;;;;;;;56.22;37.30;;;14.50;93.60;;;;;;4964300;28;20054;-52
2023/02/10 10:36:37;;;;;;;48.78;36.90;;;;;;;;;;4958684;28;20621;-52
2023/02/10 10:39:24;;;;;;;47.83;36.53;;;15.30;92.10;;;;;;4958052;28;20582;-52
2023/02/10 10:41:51;;;;;;;53.80;37.85;;;14.90;72.60;;;;;;4960713;28;20051;-53
2023/02/10 10:44:17;;;;;;;47.13;36.97;;;14.60;72.30;;;;;;4967158;28;20045;-52
2023/02/10 10:46:49;;;;;;;50.05;39.28;;;15.00;90.00;;;;;;4936183;29;20038;-52
2023/02/10 10:49:15;;;;;;;50.22;36.83;;;14.90;86.40;;;;;;4936067;29;20032;-52
2023/02/10 10:51:41;;;;;;;52.50;38.20;;;15.20;84.80;;;;;;4936597;29;20127;-49
2023/02/10 10:54:09;;;;;;;51.88;40.00;;;;;;;;;;4935900;29;20038;-50
2023/02/10 10:56:43;;;;;;;49.50;37.50;;;;;;;;;;4936381;29;20040;-49
2023/02/10 10:59:28;;;;;;;52.33;40.33;;;;;;;;;;4936446;29;20070;-51
2023/02/10 11:01:54;;;;;;;48.80;38.05;;;16.20;96.90;;;;;;4938761;29;20043;-52
2023/02/10 11:04:25;;;;;;;61.45;36.97;;;16.00;70.90;;;;;;4955704;29;20428;-52
2023/02/10 11:06:53;;;;;;;45.85;34.28;;;;;;;;;;5032818;28;20037;-52
2023/02/10 11:09:29;;;;;;;49.97;37.55;;;15.70;70.70;;;;;;5033685;28;20395;-52
2023/02/10 11:12:06;;;;;;;46.55;35.22;;;16.40;71.30;;;;;;5000376;28;20496;-52
2023/02/10 11:14:56;;;;;;;45.90;35.63;;;16.10;70.10;;;;;;4994067;28;20045;-52
2023/02/10 11:17:38;;;;;;;46.58;35.88;;;15.90;70.90;;;;;;4997596;28;20184;-52
2023/02/10 11:20:12;;;;;;;44.22;36.13;;;15.70;70.90;;;;;;5015318;28;20046;-52
2023/02/10 11:22:39;;;;;;;52.33;39.90;;;15.90;70.90;;;;;;5013173;28;20405;-53
2023/02/10 11:25:37;;;;;;;46.60;36.45;;;;;;;;;;5012985;28;20034;-52
2023/02/10 11:28:05;;;;;;;50.20;36.13;;;;;;;;;;4988205;28;20042;-52
2023/02/10 11:30:36;;;;;;;41.35;31.60;;;;;;;;;;4993934;28;20100;-50
2023/02/10 11:33:03;;;;;;;42.40;34.28;;;;;;;;;;4977529;28;20034;-50
2023/02/10 11:35:31;;;;;;;46.53;33.88;;;;;;;;;;4990230;28;20047;-50
2023/02/10 11:38:02;;;;;;;39.00;29.73;;;;;;;;;;4989440;28;20034;-50
2023/02/10 11:40:30;;;;;;;35.75;27.55;;;;;;;;;;4977293;28;20096;-50
2023/02/10 11:43:00;;;;;;;37.50;29.00;;;16.90;96.50;;;;;;4984936;28;20038;-50
2023/02/10 11:45:32;;;;;;;38.25;30.00;;;16.70;67.80;;;;;;4990513;28;20494;-50
2023/02/10 11:48:01;;;;;;;41.83;31.20;;;;;;;;;;5032518;28;20087;-50
2023/02/10 11:50:30;;;;;;;54.63;30.52;;;16.10;69.20;;;;;;5032856;28;20035;-50
2023/02/10 11:52:56;;;;;;;43.65;29.50;;;16.60;68.70;;;;;;5032677;28;20045;-50
2023/02/10 11:55:33;;;;;;;35.67;27.92;;;16.30;74.70;;;;;;5032477;28;20044;-50
2023/02/10 12:01:09;;;;;;;121.95;31.70;;;16.30;87.50;;;;;;5031700;28;20065;-51
2023/02/10 12:03:35;;;;;;;35.30;27.63;;;14.80;69.50;;;;;;5041485;28;20052;-50
2023/02/10 12:06:12;;;;;;;33.22;26.10;;;15.60;69.50;;;;;;5051735;28;20071;-50
2023/02/10 12:08:57;;;;;;;39.63;30.92;;;15.40;69.20;;;;;;5050816;28;20471;-50
2023/02/10 12:11:54;;;;;;;33.53;25.33;;;15.40;69.80;;;;;;5051714;28;20045;-52
2023/02/10 12:14:49;;;;;;;34.35;27.60;;;14.90;70.00;;;;;;5052322;28;20033;-51
2023/02/10 12:17:18;;;;;;;33.58;26.77;;;14.40;71.20;;;;;;5054063;28;20112;-48
2023/02/10 12:20:08;;;;;;;32.63;26.70;;;14.50;70.80;;;;;;5053735;28;20060;-49
2023/02/10 12:23:24;;;;;;;32.35;24.25;;;14.80;70.60;;;;;;5054087;28;20037;-50
2023/02/10 12:26:15;;;;;;;30.02;21.52;;;14.40;70.00;;;;;;5051371;28;20131;-50
2023/02/10 12:28:44;;;;;;;35.67;25.92;;;14.70;95.70;;;;;;5042357;28;20537;-50
2023/02/10 12:31:21;;;;;;;33.78;24.17;;;13.50;93.80;;;;;;5031672;28;20044;-50
2023/02/10 12:34:24;;;;;;;31.27;20.58;;;13.60;91.40;;;;;;5031955;28;20505;-49
2023/02/10 12:37:34;;;;;;;27.25;21.23;;;12.60;87.40;;;;;;5032011;28;20163;-50
2023/02/10 12:40:16;;;;;;;27.85;18.90;;;12.10;71.90;;;;;;4992519;28;20073;-50
2023/02/10 12:42:52;;;;;;;27.05;19.35;;;11.80;71.80;;;;;;4992668;28;20038;-50
2023/02/10 12:45:49;;;;;;;27.60;19.92;;;11.50;72.50;;;;;;4992431;28;20026;-50
2023/02/10 12:48:18;;;;;;;28.13;19.65;;;;;;;;;;4953554;29;20040;-50
2023/02/10 12:50:52;;;;;;;26.23;18.63;;;;;;;;;;4953991;29;20091;-50
2023/02/10 12:53:28;;;;;;;33.08;24.00;;;11.20;93.50;;;;;;4953642;29;20050;-50
2023/02/10 12:56:00;;;;;;;49.55;32.78;;;;;;;;;;4953481;29;20063;-50
2023/02/10 12:58:30;;;;;;;48.80;33.55;;;;;;;;;;4953412;29;20079;-50
2023/02/10 13:01:18;;;;;;;31.05;22.75;;;;;;;;;;4953484;29;20526;-50
2023/02/10 13:03:46;;;;;;;40.20;28.50;;;;;;;;;;4953402;29;20042;-49